Time;durP1;ratioP1;P1;durP2;ratioP2;P2;SDS_P1;SDS_P2;PMS_P1;PMS_P2;Temp;Humidity;BMP_temperature;BMP_pressure;BME280_temperature;BME280_humidity;BME280_pressure;Samples;Min_cycle;Max_cycle;Signal;HPM_P1;HPM_P2
2021/05/23 19:50:47;;;;;;;3.53;1.27;;;12.50;99.90;;;10.70;62.81;101039.81;3558979;39;102009;-40
2021/05/23 19:53:15;;;;;;;2.95;1.00;;;12.20;99.90;;;10.67;62.10;101042.97;3535909;39;104053;-40
2021/05/23 19:55:44;;;;;;;2.10;1.23;;;12.20;99.90;;;10.61;63.61;101047.38;3519786;39;104184;-41
2021/05/23 19:58:12;;;;;;;2.95;1.30;;;12.10;99.90;;;10.59;62.67;101048.59;3536788;39;102326;-41
2021/05/23 20:00:41;;;;;;;3.20;1.02;;;12.10;99.90;;;10.57;62.49;101042.53;3527677;39;102613;-41
2021/05/23 20:03:09;;;;;;;2.97;1.00;;;12.10;99.90;;;10.54;62.40;101041.06;3653061;22;103953;-40
2021/05/23 20:05:37;;;;;;;;;;;12.00;99.90;;;10.53;62.33;101042.13;3525873;40;103982;-40
2021/05/23 20:08:06;;;;;;;1.92;0.93;;;12.10;99.90;;;10.53;61.99;101038.53;3525916;40;102393;-40
2021/05/23 20:10:36;;;;;;;2.58;0.90;;;12.10;99.90;;;10.52;61.79;101045.03;3525549;40;103330;-40
2021/05/23 20:13:05;;;;;;;1.83;1.02;;;12.00;99.90;;;10.49;62.02;101047.13;3526850;39;103287;-40
2021/05/23 20:15:33;;;;;;;3.60;1.10;;;12.00;99.90;;;10.49;62.10;101043.56;3516811;40;102927;-41
2021/05/23 20:18:02;;;;;;;2.20;0.90;;;12.00;99.90;;;10.48;62.22;101040.00;3525903;40;102494;-40
2021/05/23 20:20:32;;;;;;;3.42;1.00;;;12.00;99.90;;;10.50;61.43;101043.34;3524925;40;102333;-40
2021/05/23 20:23:02;;;;;;;2.58;0.85;;;12.00;99.90;;;10.50;60.84;101043.34;3526666;39;102415;-40
2021/05/23 20:25:30;;;;;;;2.92;1.30;;;12.00;99.90;;;10.49;61.12;101040.84;3526335;39;105047;-40
2021/05/23 20:27:58;;;;;;;3.72;1.25;;;12.00;99.90;;;10.50;61.43;101029.72;3525648;40;102417;-41
2021/05/23 20:30:26;;;;;;;;;;;12.00;99.90;;;10.43;61.17;101028.88;3526236;40;102543;-41
2021/05/23 20:32:54;;;;;;;3.67;1.00;;;12.00;99.90;;;10.39;61.26;101026.72;3527056;39;102304;-40
2021/05/23 20:35:22;;;;;;;3.70;1.20;;;11.90;99.90;;;10.38;61.01;101028.63;3525020;40;103121;-40
2021/05/23 20:37:54;;;;;;;;;;;11.90;99.90;;;10.29;61.52;101024.38;3526863;40;102143;-41
2021/05/23 20:40:26;;;;;;;1.63;0.80;;;11.80;99.90;;;10.26;61.50;101019.34;3526312;40;103197;-40
2021/05/23 20:42:54;;;;;;;3.22;1.10;;;11.80;99.90;;;10.27;61.09;101018.28;3517502;40;102575;-42
2021/05/23 20:45:22;;;;;;;4.22;1.17;;;11.80;99.90;;;10.22;60.92;101018.94;3525373;39;103032;-40
2021/05/23 20:47:50;;;;;;;3.65;1.65;;;11.70;99.90;;;10.22;60.38;101018.94;3525073;40;103409;-41
2021/05/23 20:50:18;;;;;;;4.20;1.15;;;11.70;99.90;;;10.26;59.43;101013.88;3525335;40;102216;-40
2021/05/23 20:52:47;;;;;;;2.85;1.20;;;11.80;99.90;;;10.28;60.15;101020.84;3517521;40;102767;-39
2021/05/23 20:55:16;;;;;;;2.50;1.20;;;11.80;99.90;;;10.27;59.60;101019.16;3516890;40;102315;-40
2021/05/23 20:57:43;;;;;;;3.08;1.08;;;11.70;99.90;;;10.24;60.42;101019.56;3526432;39;102514;-40
2021/05/23 21:00:14;;;;;;;3.55;1.15;;;11.70;99.90;;;10.26;60.11;101022.94;3516062;40;102256;-40
2021/05/23 21:02:43;;;;;;;2.83;1.10;;;11.70;99.90;;;10.29;59.62;101024.38;3504498;39;103655;-40
2021/05/23 21:05:16;;;;;;;2.75;1.20;;;11.80;99.90;;;10.30;59.38;101024.19;3527965;39;105252;-40
2021/05/23 21:07:49;;;;;;;3.08;1.10;;;11.80;99.90;;;10.29;59.52;101010.75;3528577;39;102889;-40
2021/05/23 21:10:18;;;;;;;2.83;0.95;;;11.80;99.90;;;10.30;59.04;101016.00;3520335;39;103242;-43
2021/05/23 21:12:48;;;;;;;3.42;0.98;;;11.80;99.90;;;10.34;59.12;101013.69;3520459;39;102330;-40
2021/05/23 21:15:17;;;;;;;1.65;0.80;;;11.80;99.90;;;10.39;58.35;101007.63;3528368;39;102308;-40
2021/05/23 21:17:45;;;;;;;2.38;0.95;;;11.80;99.90;;;10.36;59.12;101006.19;3528467;39;102381;-42
2021/05/23 21:20:17;;;;;;;3.22;1.10;;;11.80;99.90;;;10.41;59.51;101013.75;3519663;39;103251;-40
2021/05/23 21:22:48;;;;;;;4.22;1.00;;;11.80;99.90;;;10.41;58.52;101011.03;3519978;39;105183;-40
2021/05/23 21:25:16;;;;;;;2.20;0.70;;;11.80;99.90;;;10.47;58.79;101002.84;3528966;39;104098;-41
2021/05/23 21:27:44;;;;;;;3.17;1.00;;;11.90;99.90;;;10.48;57.75;100995.53;3511891;39;102450;-41
2021/05/23 21:30:14;;;;;;;1.05;0.57;;;11.90;99.90;;;10.48;58.54;100998.25;3520159;39;102469;-41
2021/05/23 21:32:43;;;;;;;3.63;0.90;;;11.90;99.90;;;10.45;58.84;100998.63;3529709;39;103218;-40
2021/05/23 21:35:12;;;;;;;2.17;0.80;;;11.90;99.90;;;10.45;58.41;100999.50;3520183;39;102404;-42
2021/05/23 21:37:40;;;;;;;2.03;1.00;;;11.90;99.90;;;10.39;58.73;100988.53;3528996;39;102491;-40
2021/05/23 21:40:11;;;;;;;1.60;0.90;;;11.80;99.90;;;10.35;58.93;100993.59;3528523;39;103235;-42
2021/05/23 21:42:39;;;;;;;2.33;1.00;;;11.80;99.90;;;10.31;59.36;100995.03;3519799;39;103552;-41
2021/05/23 21:45:11;;;;;;;1.98;0.93;;;11.80;99.90;;;10.22;59.54;100999.84;3527783;39;104032;-40
2021/05/23 21:47:39;;;;;;;2.70;0.90;;;11.70;99.90;;;10.15;59.00;100997.09;3528161;39;102380;-42
2021/05/23 21:50:28;;;;;;;2.60;0.90;;;11.70;99.90;;;10.14;59.00;100987.25;3528626;39;106103;-40
2021/05/23 21:52:55;;;;;;;3.63;1.10;;;11.60;99.90;;;10.14;59.46;100984.50;3520518;39;102467;-40
2021/05/23 21:55:23;;;;;;;3.30;1.17;;;11.60;99.90;;;10.09;59.59;100981.56;3528270;39;102246;-40
2021/05/23 21:57:50;;;;;;;4.15;1.05;;;11.60;99.90;;;10.07;59.04;100987.22;3528094;39;103309;-40
2021/05/23 22:00:19;;;;;;;3.50;1.20;;;11.50;99.90;;;10.07;59.84;100980.91;3520136;39;103137;-40
2021/05/23 22:02:47;;;;;;;2.42;1.13;;;11.50;99.90;;;10.04;60.43;100976.72;3528622;39;102182;-40
2021/05/23 22:05:15;;;;;;;;;;;11.50;99.90;;;10.02;60.33;100967.91;3528691;39;103178;-40
2021/05/23 22:07:42;;;;;;;1.35;0.95;;;11.50;99.90;;;10.02;60.67;100967.06;3520527;39;102422;-40
2021/05/23 22:10:11;;;;;;;2.40;0.90;;;11.50;99.90;;;10.02;60.59;100975.22;3511785;39;102636;-41
2021/05/23 22:12:40;;;;;;;2.67;0.80;;;11.50;99.90;;;9.95;61.77;100975.25;3527661;39;102236;-40
2021/05/23 22:15:11;;;;;;;4.03;1.08;;;11.40;99.90;;;9.92;60.52;100968.28;3527810;39;104232;-42
2021/05/23 22:17:41;;;;;;;2.50;1.38;;;11.40;99.90;;;9.88;60.58;100967.03;3528629;39;102403;-40
2021/05/23 22:20:11;;;;;;;2.30;1.10;;;11.40;99.90;;;9.80;62.41;100964.47;3519361;39;104009;-41
2021/05/23 22:22:41;;;;;;;3.50;1.05;;;11.30;99.90;;;9.67;63.09;100961.69;3528381;39;102482;-40
2021/05/23 22:25:13;;;;;;;3.42;1.30;;;11.20;99.90;;;9.57;62.83;100959.34;3528303;39;103157;-41
2021/05/23 22:27:43;;;;;;;3.50;1.40;;;11.10;99.90;;;9.48;63.83;100962.25;3528648;39;102374;-42
2021/05/23 22:30:16;;;;;;;3.67;1.10;;;11.00;99.90;;;9.41;63.93;100966.81;3520018;39;102804;-40
2021/05/23 22:32:46;;;;;;;3.47;1.27;;;10.90;99.90;;;9.34;64.37;100960.50;3520014;39;102292;-40
2021/05/23 22:35:20;;;;;;;4.32;1.40;;;10.80;99.90;;;9.27;65.13;100960.44;3527859;39;102358;-40
2021/05/23 22:37:49;;;;;;;4.22;1.48;;;10.80;99.90;;;9.25;64.29;100961.72;3519875;39;102483;-41
2021/05/23 22:40:23;;;;;;;5.10;1.50;;;10.80;99.90;;;9.23;64.03;100947.47;3519797;39;102836;-43
2021/05/23 22:42:53;;;;;;;4.00;1.23;;;10.80;99.90;;;9.20;64.79;100951.41;3520010;39;103388;-40
2021/05/23 22:45:22;;;;;;;3.00;1.10;;;10.70;99.90;;;9.18;65.01;100950.78;3519619;39;104216;-40
2021/05/23 22:47:50;;;;;;;3.42;1.50;;;10.70;99.90;;;9.11;65.53;100944.44;3528054;39;102500;-40
2021/05/23 22:50:33;;;;;;;3.15;1.40;;;10.60;99.90;;;9.06;64.95;100931.44;3519992;39;104085;-40
2021/05/23 22:53:03;;;;;;;4.93;1.45;;;10.60;99.90;;;9.12;65.11;100941.50;3519555;39;102533;-40
2021/05/23 22:55:47;;;;;;;3.30;1.33;;;10.60;99.90;;;9.11;65.51;100947.16;3528052;39;102296;-40
2021/05/23 22:58:23;;;;;;;2.95;1.20;;;10.60;99.90;;;9.12;65.00;100935.25;3528705;39;102503;-40
2021/05/23 23:01:06;;;;;;;4.55;1.27;;;10.60;99.90;;;9.11;64.68;100931.66;3528372;39;103209;-40
2021/05/23 23:03:42;;;;;;;3.25;1.45;;;10.60;99.90;;;9.13;64.41;100921.41;3527349;39;105008;-40
2021/05/23 23:06:14;;;;;;;3.35;1.17;;;10.60;99.90;;;9.09;64.16;100914.69;3520393;39;102274;-41
2021/05/23 23:08:43;;;;;;;5.00;1.48;;;10.70;99.90;;;9.28;64.54;100932.22;3527978;39;103248;-40
2021/05/23 23:11:11;;;;;;;4.43;1.30;;;10.70;99.90;;;9.37;63.30;100924.69;3529432;39;104161;-41
2021/05/23 23:13:40;;;;;;;3.67;1.17;;;10.80;99.90;;;9.40;63.20;100918.84;3527751;39;102465;-40
2021/05/23 23:16:29;;;;;;;2.88;1.00;;;10.90;99.90;;;9.38;64.08;100928.25;3528902;39;102282;-40
2021/05/23 23:18:57;;;;;;;2.45;1.10;;;10.80;99.90;;;9.34;64.03;100930.53;3526904;39;103977;-41
2021/05/23 23:21:26;;;;;;;1.73;1.00;;;10.80;99.90;;;9.31;64.07;100933.66;3528142;39;102225;-41
2021/05/23 23:23:55;;;;;;;3.53;1.35;;;10.80;99.90;;;9.29;64.12;100933.03;3527637;39;103463;-40
2021/05/23 23:26:22;;;;;;;4.60;1.85;;;10.80;99.90;;;9.24;64.06;100921.91;3519472;39;103195;-40
2021/05/23 23:28:50;;;;;;;2.80;1.20;;;10.80;99.90;;;9.09;63.72;100898.38;3511520;39;102393;-40
2021/05/23 23:31:18;;;;;;;3.38;1.20;;;10.70;99.90;;;9.29;64.07;100924.88;3519562;39;104253;-39
2021/05/23 23:33:47;;;;;;;2.58;1.10;;;10.80;99.90;;;9.30;63.11;100926.53;3511383;39;104170;-41
2021/05/23 23:36:16;;;;;;;2.03;1.05;;;10.80;99.90;;;9.34;63.63;100928.66;3527347;39;105150;-40
2021/05/23 23:38:45;;;;;;;1.58;0.85;;;10.80;99.90;;;9.33;62.78;100923.41;3519780;39;102847;-41
2021/05/23 23:41:13;;;;;;;2.75;1.20;;;10.80;99.90;;;9.31;63.93;100923.63;3511168;39;104980;-40
2021/05/23 23:43:45;;;;;;;1.67;0.85;;;10.80;99.90;;;9.30;64.13;100926.53;3518916;39;104043;-43
2021/05/23 23:46:15;;;;;;;2.65;1.20;;;10.80;99.90;;;9.31;63.31;100922.78;3529037;39;104297;-40
2021/05/23 23:48:44;;;;;;;3.03;1.40;;;10.80;99.90;;;9.28;63.89;100921.31;3511449;39;102494;-40
2021/05/23 23:51:12;;;;;;;2.17;1.10;;;10.80;99.90;;;9.28;63.76;100918.59;3527796;39;102277;-40
2021/05/23 23:53:40;;;;;;;3.05;1.15;;;10.80;99.90;;;9.28;63.63;100910.44;3519277;39;102220;-40
2021/05/23 23:56:08;;;;;;;2.28;1.05;;;10.80;99.90;;;9.33;63.72;100918.81;3519410;39;103247;-40
2021/05/23 23:58:36;;;;;;;3.00;1.05;;;10.80;99.90;;;9.35;64.09;100908.56;3519602;39;104645;-40
